• Join FlightAware (Why Join?)
  • Login
  • US Flag 
01:29AM EDT


 

Airport Tracker/Info


-or-


 

Live Flight TrackerFlight Track Log ✈ GJS6221 ✈ 10-Oct-2013 ✈ KLGA - KSAV

Flight Track Log - Related Links

Times and Time Zones

All times are in EDT time to prevent confusion due to time zone crossing. See the GJS6221 flight status page for this flight to view local times or setup timezone preferences in your user account.

Time Position Orientation Groundspeed Altitude Reporting Facility
EDT Latitude Longitude Course Direction KTS MPH feet Rate Location/Type
02:18PM 40.7333 -73.8333 217° Southwest 186 214 2,400  Level New York TRACON
02:19PM 40.7500 -73.7833 66° East 216 249 4,500 2,100 Climbing New York TRACON
02:20PM 40.8167 -73.7833 360° North 279 321 6,600 2,220 Climbing New York TRACON
02:21PM 40.8500 -73.8667 298° West 313 360 9,000 2,280 Climbing New York TRACON
02:22PM 40.8333 -73.9667 258° West 318 366 11,200 1,500 Climbing New York TRACON
02:23PM 40.7500 -74.0333 211° Southwest 328 377 12,000 360 Climbing New York TRACON
02:24PM 40.0893 -74.5368 217° Southwest  Level Estimated
02:24PM 40.6667 -74.0833 204° Southwest 344 396 12,000  Level New York TRACON
02:26PM 40.4953 -74.1278 191° South 369 425 15,100 1,740 Climbing New York Center
02:27PM 40.4050 -74.1506 191° South 369 425 16,900 1,560 Climbing New York Center
02:29PM 40.2158 -74.1978 191° South 371 427 19,600 1,560 Climbing Washington Center
02:30PM 40.1097 -74.2244 191° South 376 433 21,300 1,320 Climbing Washington Center
02:31PM 40.0061 -74.2561 193° South 381 438 22,300 1,200 Climbing Washington Center
02:32PM 39.9153 -74.3364 214° Southwest 381 438 23,700 1,260 Climbing Washington Center
02:33PM 39.8267 -74.4269 218° Southwest 397 457 24,800 1,020 Climbing Washington Center
02:34PM 39.7442 -74.5308 224° Southwest 410 472 25,800 960 Climbing Washington Center
02:35PM 39.6617 -74.6372 225° Southwest 416 479 26,800 960 Climbing Washington Center
02:36PM 39.5875 -74.7353 226° Southwest 422 486 27,700 840 Climbing Washington Center
02:37PM 39.5050 -74.8464 226° Southwest 427 491 28,500 600 Climbing Washington Center
02:38PM 39.4181 -74.9603 225° Southwest 432 497 29,000 480 Climbing Washington Center
02:39PM 39.3311 -75.0736 225° Southwest 437 503 29,500 480 Climbing Washington Center
02:40PM 39.2314 -75.1656 216° Southwest 437 503 30,000 480 Climbing Washington Center
02:41PM 39.1233 -75.2439 209° Southwest 447 514 30,500 540 Climbing Washington Center
02:42PM 39.0172 -75.3297 212° Southwest 454 522 31,100 600 Climbing Washington Center
02:43PM 38.9089 -75.4128 211° Southwest 454 522 31,800 720 Climbing Washington Center
02:44PM 38.8047 -75.4931 211° Southwest 449 517 32,600 780 Climbing Washington Center
02:45PM 38.6986 -75.5703 210° Southwest 449 517 33,400 780 Climbing Washington Center
02:46PM 38.5922 -75.6500 210° Southwest 449 517 34,200 720 Climbing Washington Center
02:47PM 38.4900 -75.7269 211° Southwest 449 517 34,900 600 Climbing Washington Center
02:48PM 38.3878 -75.8036 210° Southwest 449 517 35,500 540 Climbing Washington Center
02:49PM 38.2811 -75.8747 208° Southwest 443 510 36,100 540 Climbing Washington Center
02:50PM 38.1789 -75.9536 211° Southwest 438 504 36,700 540 Climbing Washington Center
02:51PM 38.0764 -76.0269 209° Southwest 438 504 37,200 540 Climbing Washington Center
02:52PM 37.9656 -76.1106 211° Southwest 433 498 37,800 360 Climbing Washington Center
02:53PM 37.8631 -76.1836 209° Southwest 428 493 38,000 60 Climbing Washington Center
02:54PM 37.7625 -76.2564 210° Southwest 423 487 38,000  Level Washington Center
02:55PM 37.6642 -76.3317 211° Southwest 423 487 38,000  Level Washington Center
02:56PM 37.5656 -76.4172 215° Southwest 428 493 38,000  Level Washington Center
02:57PM 37.4731 -76.5050 217° Southwest 433 498 38,000  Level Washington Center
02:58PM 37.3806 -76.5928 217° Southwest 428 493 38,000  Level Washington Center
02:59PM 37.2881 -76.6778 216° Southwest 423 487 38,000  Level Washington Center
03:00PM 37.1956 -76.7678 218° Southwest 423 487 38,000  Level Washington Center
03:01PM 37.1197 -76.8394 217° Southwest 423 487 38,000  Level Washington Center
03:02PM 37.0206 -76.9342 217° Southwest 423 487 38,000  Level Washington Center
03:03PM 36.9300 -77.0183 217° Southwest 416 479 38,000  Level Washington Center
03:04PM 36.8264 -77.1178 218° Southwest 423 487 38,000  Level Washington Center
03:05PM 36.7336 -77.2039 217° Southwest 423 487 38,000  Level Washington Center
03:06PM 36.6406 -77.2925 217° Southwest 418 481 38,000  Level Washington Center
03:07PM 36.5456 -77.3783 216° Southwest 418 481 38,000  Level Washington Center
03:08PM 36.4503 -77.4692 217° Southwest 418 481 38,000  Level Washington Center
03:09PM 36.3697 -77.5422 216° Southwest 412 474 38,000  Level Washington Center
03:10PM 36.2764 -77.6325 218° Southwest 420 483 38,000  Level Washington Center
03:11PM 36.1831 -77.7175 216° Southwest 425 489 38,000  Level Washington Center
03:12PM 36.0856 -77.8050 216° Southwest 425 489 38,000  Level Washington Center
03:13PM 35.9900 -77.8922 216° Southwest 431 496 38,000  Level Washington Center
03:14PM 35.8944 -77.9792 216° Southwest 431 496 38,000  Level Washington Center
03:15PM 35.7944 -78.0683 216° Southwest 436 502 38,000  Level Washington Center
03:16PM 35.6967 -78.1547 216° Southwest 441 507 38,000  Level Washington Center
03:17PM 35.5883 -78.2508 216° Southwest 441 507 38,000  Level Washington Center
03:18PM 35.4861 -78.3367 214° Southwest 441 507 38,000  Level Washington Center
03:19PM 35.3817 -78.4275 215° Southwest 451 519 38,000  Level Washington Center
03:20PM 35.2836 -78.5206 218° Southwest 456 525 38,000  Level Washington Center
03:21PM 35.1875 -78.6086 217° Southwest 456 525 38,000  Level Washington Center
03:22PM 35.0892 -78.6939 215° Southwest 445 512 38,000  Level Washington Center
03:24PM 34.9331 -78.8336 216° Southwest 441 507 38,000  Level Jacksonville Center
03:25PM 34.8378 -78.9167 216° Southwest 441 507 38,000  Level Jacksonville Center
03:26PM 34.7403 -79.0019 216° Southwest 441 507 38,000  Level Jacksonville Center
03:27PM 34.6428 -79.0872 216° Southwest 441 507 38,000  Level Jacksonville Center
03:28PM 34.5450 -79.1669 214° Southwest 436 502 38,000  Level Jacksonville Center
03:29PM 34.4517 -79.2592 219° Southwest 436 502 38,000  Level Jacksonville Center
03:30PM 34.3561 -79.3436 216° Southwest 436 502 38,000  Level Jacksonville Center
03:31PM 34.2561 -79.4231 213° Southwest 436 502 38,000  Level Jacksonville Center
03:32PM 34.1706 -79.4967 215° Southwest 436 502 38,000  Level Jacksonville Center
03:33PM 34.0747 -79.5808 216° Southwest 431 496 38,000  Level Jacksonville Center
03:34PM 33.9767 -79.6672 216° Southwest 436 502 38,000  Level Jacksonville Center
03:35PM 33.8767 -79.7508 215° Southwest 436 502 38,000  Level Jacksonville Center
03:36PM 33.7783 -79.8317 214° Southwest 436 502 38,000 -480 Level Jacksonville Center
03:37PM 33.6803 -79.9175 216° Southwest 436 502 37,100 -1,020 Descending Jacksonville Center
03:38PM 33.5819 -80.0006 215° Southwest 436 502 36,000 -1,140 Descending Jacksonville Center
03:39PM 33.4839 -80.0836 215° Southwest 436 502 34,900 -1,020 Descending Jacksonville Center
03:40PM 33.3856 -80.1686 216° Southwest 436 502 34,000 -1,200 Descending Jacksonville Center
03:41PM 33.2850 -80.2539 215° Southwest 436 502 32,500 -2,400 Descending Jacksonville Center
03:42PM 33.1700 -80.3439 213° Southwest 441 507 29,200 -3,180 Descending Jacksonville Center
03:43PM 33.0797 -80.4258 217° Southwest 434 499 26,200 -3,000 Descending Jacksonville Center
03:44PM 32.9831 -80.5003 213° Southwest 428 493 23,300 -2,760 Descending Jacksonville Center
03:45PM 32.8867 -80.5819 215° Southwest 423 487 20,700 -2,700 Descending Jacksonville Center
03:46PM 32.7919 -80.6586 214° Southwest 423 487 18,000 -2,700 Descending Jacksonville Center
03:47PM 32.7033 -80.7325 215° Southwest 417 480 15,300 -2,700 Descending Jacksonville Center
03:48PM 32.6169 -80.8036 215° Southwest 394 453 12,600 -2,220 Descending Jacksonville Center
03:49PM 32.5344 -80.8694 214° Southwest 367 422 10,900 -1,080 Descending Jacksonville Center
03:50PM 32.4583 -80.9353 216° Southwest 343 395 10,500 -900 Descending Jacksonville Center
03:51PM 32.3903 -80.9908 215° Southwest 316 364 9,200 -1,500 Descending Jacksonville Center
03:52PM 32.3194 -80.9972 184° South 282 325 7,600 -1,200 Descending Jacksonville Center
03:53PM 32.2486 -81.0036 184° South 271 312 6,800 -1,140 Descending Jacksonville Center
03:54PM 32.1839 -81.0050 181° South 230 265 5,400 -1,800 Descending Jacksonville Center
03:55PM 32.1383 -81.0353 209° Southwest 189 217 3,300 -1,800 Descending Jacksonville Center
03:56PM 32.1244 -81.0822 251° West 162 186 1,900 -1,080 Descending Jacksonville Center
03:57PM 32.1269 -81.1189 275° West 145 167 1,200 -720 Descending Jacksonville Center
03:59PM 32.1167 -81.2000 180° South  Level FlightAware Approximate
04:06PM 32.1276 -81.2021 180° South  Level Estimated
04:07PM 32.1276 -81.2021 180° South  Level Estimated